Weather History for Tehachapi, CA

Change the Weather History Date:

Saturday, June 29, 2013

  Actual Average Record
Temperature  
Mean Temperature 80 °F -  
Max Temperature 93 °F 82 °F 93 °F (2013)
Min Temperature 66 °F 55 °F 44 °F (2011)
Cooling Degree Days 14    
Growing Degree Days 30 (Base 50)    
Moisture  
Dew Point 50 °F    
Average Humidity 37    
Maximum Humidity 60    
Minimum Humidity 22    
Precipitation  
Precipitation 0.00 in - - ()
Sea Level Pressure  
Sea Level Pressure 30.09 in    
Wind  
Wind Speed 9 mph (WNW)    
Max Wind Speed 20 mph    
Max Gust Speed 26 mph    
Visibility 10 miles    
Events      
Averages and records for this station are not official NWS values.
T = Trace of Precipitation, MM = Missing Value Source: NWS Daily Summary

Daily Weather History Graph

Daily Weather History Graph

Search for Another Location

Airport:

Trip Planner

Search our weather history database for the weather conditions in past years. The results will help you decide how hot, cold, wet, or windy it might be!

Date:

Astronomy

Jun. 29, 2013 Rise Set
Actual Time 5:42 AM PDT 8:12 PM PDT
Civil Twilight 5:12 AM PDT 8:41 PM PDT
Nautical Twilight 4:35 AM PDT 9:18 PM PDT
Astronomical Twilight 3:55 AM PDT 9:58 PM PDT
Moon No Moon Rise 12:41 PM PDT (6/29)
Length of Visible Light 15h 29m
Length of Day
14h 29m
Waning Gibbous, 54% of the Moon is Illuminated
Jun 29
Waning Gibbous
Jun 29
Last Quarter
Jul 8
New
Jul 15
First Quarter
Jul 22
Full

Hourly Weather History & Observations

Time (PDT) Temp. Dew Point Humidity Pressure Visibility Wind Dir Wind Speed Gust Speed Precip Events Conditions
12:15 AM 71.6 °F 53.6 °F 53% 30.15 in 10.0 mi West 6.9 mph - N/A   Clear
12:35 AM 69.8 °F 53.6 °F 56% 30.15 in 10.0 mi West 6.9 mph - N/A   Clear
12:55 AM 69.8 °F 53.6 °F 56% 30.15 in 10.0 mi WNW 6.9 mph - N/A   Clear
1:15 AM 71.6 °F 53.6 °F 53% 30.14 in 10.0 mi West 6.9 mph - N/A   Clear
1:35 AM 69.8 °F 53.6 °F 56% 30.14 in 10.0 mi West 6.9 mph - N/A   Clear
1:55 AM 68.0 °F 53.6 °F 60% 30.14 in 10.0 mi WNW 5.8 mph - N/A   Clear
2:15 AM 69.8 °F 53.6 °F 56% 30.14 in 10.0 mi West 4.6 mph - N/A   Clear
2:35 AM 71.6 °F 51.8 °F 50% 30.13 in 10.0 mi WNW 8.1 mph - N/A   Clear
2:55 AM 69.8 °F 51.8 °F 53% 30.12 in 10.0 mi West 6.9 mph - N/A   Clear
3:15 AM 68.0 °F 51.8 °F 56% 30.12 in 10.0 mi West 5.8 mph - N/A   Clear
3:35 AM 68.0 °F 50.0 °F 52% 30.12 in 10.0 mi West 5.8 mph - N/A   Clear
3:55 AM 66.2 °F 50.0 °F 56% 30.12 in 10.0 mi West 5.8 mph - N/A   Clear
4:15 AM 71.6 °F 51.8 °F 50% 30.12 in 10.0 mi West 6.9 mph - N/A   Clear
4:35 AM 68.0 °F 50.0 °F 52% 30.12 in 10.0 mi West 5.8 mph - N/A   Clear
4:55 AM 68.0 °F 51.8 °F 56% 30.12 in 10.0 mi West 4.6 mph - N/A   Clear
5:15 AM 68.0 °F 51.8 °F 56% 30.12 in 10.0 mi West 6.9 mph - N/A   Clear
5:35 AM 68.0 °F 50.0 °F 52% 30.12 in 10.0 mi West 4.6 mph - N/A   Clear
5:55 AM 68.0 °F 51.8 °F 56% 30.12 in 10.0 mi West 4.6 mph - N/A   Clear
6:15 AM 68.0 °F 51.8 °F 56% 30.12 in 10.0 mi WSW 3.5 mph - N/A   Clear
6:35 AM 68.0 °F 53.6 °F 60% 30.13 in 10.0 mi Calm Calm - N/A   Clear
6:55 AM 73.4 °F 53.6 °F 50% 30.13 in 10.0 mi West 3.5 mph - N/A   Clear
7:15 AM 75.2 °F 53.6 °F 47% 30.12 in 10.0 mi NW 9.2 mph - N/A   Clear
7:35 AM 77.0 °F 55.4 °F 47% 30.12 in 10.0 mi WNW 8.1 mph - N/A   Clear
7:55 AM 77.0 °F 55.4 °F 47% 30.12 in 10.0 mi NW 10.4 mph - N/A   Clear
8:15 AM 80.6 °F 51.8 °F 37% 30.13 in 10.0 mi NW 8.1 mph - N/A   Clear
8:35 AM 80.6 °F 50.0 °F 34% 30.13 in 10.0 mi WNW 8.1 mph - N/A   Clear
8:55 AM 82.4 °F 50.0 °F 32% 30.13 in 10.0 mi WNW 9.2 mph - N/A   Clear
9:15 AM 82.4 °F 50.0 °F 32% 30.12 in 10.0 mi NW 12.7 mph - N/A   Clear
9:35 AM 84.2 °F 48.2 °F 29% 30.13 in 10.0 mi NW 13.8 mph - N/A   Clear
9:55 AM 84.2 °F 46.4 °F 27% 30.12 in 10.0 mi NW 11.5 mph 19.6 mph N/A   Clear
10:15 AM 86.0 °F 46.4 °F 25% 30.12 in 10.0 mi NW 13.8 mph 20.7 mph N/A   Clear
10:35 AM 86.0 °F 46.4 °F 25% 30.11 in 10.0 mi NNW 16.1 mph - N/A   Clear
10:55 AM 86.0 °F 48.2 °F 27% 30.11 in 10.0 mi NNW 12.7 mph 18.4 mph N/A   Clear
11:15 AM 87.8 °F 48.2 °F 25% 30.11 in 10.0 mi NW 12.7 mph 17.3 mph N/A   Clear
11:35 AM 89.6 °F 50.0 °F 26% 30.11 in 10.0 mi NW 12.7 mph - N/A   Clear
11:55 AM 89.6 °F 48.2 °F 24% 30.11 in 10.0 mi NW 12.7 mph 17.3 mph N/A   Clear
12:15 PM 89.6 °F 48.2 °F 24% 30.10 in 10.0 mi NW 13.8 mph 18.4 mph N/A   Clear
12:35 PM 89.6 °F 46.4 °F 22% 30.10 in 10.0 mi NNW 12.7 mph 19.6 mph N/A   Clear
12:55 PM 91.4 °F 48.2 °F 23% 30.09 in 10.0 mi NNW 13.8 mph 19.6 mph N/A   Clear
1:15 PM 91.4 °F 48.2 °F 23% 30.09 in 10.0 mi NW 16.1 mph 20.7 mph N/A   Clear
1:35 PM 91.4 °F 48.2 °F 23% 30.09 in 10.0 mi NW 15.0 mph 19.6 mph N/A   Clear
1:55 PM 91.4 °F 48.2 °F 23% 30.08 in 10.0 mi NW 15.0 mph 20.7 mph N/A   Clear
2:15 PM 93.2 °F 50.0 °F 23% 30.08 in 10.0 mi NW 18.4 mph 21.9 mph N/A   Clear
2:35 PM 93.2 °F 50.0 °F 23% 30.07 in 10.0 mi NNW 16.1 mph 23.0 mph N/A   Clear
2:55 PM 91.4 °F 50.0 °F 24% 30.07 in 10.0 mi NW 15.0 mph 21.9 mph N/A   Clear
3:15 PM 91.4 °F 50.0 °F 24% 30.07 in 10.0 mi WNW 12.7 mph 24.2 mph N/A   Clear
3:35 PM 91.4 °F 50.0 °F 24% 30.06 in 10.0 mi NW 18.4 mph 24.2 mph N/A   Clear
3:55 PM 91.4 °F 50.0 °F 24% 30.06 in 10.0 mi NW 18.4 mph 23.0 mph N/A   Clear
4:15 PM 91.4 °F 50.0 °F 24% 30.05 in 10.0 mi NW 18.4 mph 23.0 mph N/A   Clear
4:35 PM 91.4 °F 50.0 °F 24% 30.05 in 10.0 mi NW 19.6 mph 26.5 mph N/A   Clear
4:55 PM 91.4 °F 50.0 °F 24% 30.05 in 10.0 mi NW 18.4 mph 24.2 mph N/A   Clear
5:15 PM 89.6 °F 48.2 °F 24% 30.05 in 10.0 mi WNW 17.3 mph 23.0 mph N/A   Clear
5:35 PM 89.6 °F 48.2 °F 24% 30.04 in 10.0 mi NW 17.3 mph - N/A   Clear
5:55 PM 89.6 °F 48.2 °F 24% 30.04 in 10.0 mi NW 16.1 mph 21.9 mph N/A   Clear
6:15 PM 89.6 °F 48.2 °F 24% 30.04 in 10.0 mi NW 13.8 mph 19.6 mph N/A   Clear
6:35 PM 87.8 °F 48.2 °F 25% 30.04 in 10.0 mi NW 15.0 mph 20.7 mph N/A   Clear
6:55 PM 86.0 °F 48.2 °F 27% 30.04 in 10.0 mi NW 13.8 mph 19.6 mph N/A   Clear
7:15 PM 86.0 °F 48.2 °F 27% 30.05 in 10.0 mi NW 15.0 mph 20.7 mph N/A   Clear
7:35 PM 86.0 °F 48.2 °F 27% 30.05 in 10.0 mi WNW 11.5 mph 18.4 mph N/A   Clear
7:55 PM 84.2 °F 48.2 °F 29% 30.05 in 10.0 mi WNW 12.7 mph 16.1 mph N/A   Clear
8:15 PM 82.4 °F 48.2 °F 30% 30.05 in 10.0 mi WNW 10.4 mph - N/A   Clear
8:35 PM 80.6 °F 48.2 °F 32% 30.06 in 10.0 mi West 11.5 mph - N/A   Clear
8:55 PM 80.6 °F 48.2 °F 32% 30.06 in 10.0 mi West 9.2 mph - N/A   Clear
9:15 PM 78.8 °F 48.2 °F 34% 30.06 in 10.0 mi West 10.4 mph - N/A   Clear
9:35 PM 77.0 °F 48.2 °F 36% 30.06 in 10.0 mi West 9.2 mph - N/A   Clear
9:55 PM 77.0 °F 48.2 °F 36% 30.07 in 10.0 mi WNW 8.1 mph - N/A   Clear
10:15 PM 75.2 °F 48.2 °F 38% 30.07 in 10.0 mi WNW 8.1 mph - N/A   Clear
10:35 PM 77.0 °F 48.2 °F 36% 30.07 in 10.0 mi WNW 5.8 mph - N/A   Clear
10:55 PM 75.2 °F 48.2 °F 38% 30.07 in 10.0 mi NNW 4.6 mph - N/A   Clear
11:15 PM 73.4 °F 48.2 °F 41% 30.07 in 10.0 mi West 6.9 mph - N/A   Clear
11:35 PM 73.4 °F 48.2 °F 41% 30.07 in 10.0 mi West 6.9 mph - N/A   Clear